sensor_id;sensor_type;location;lat;lon;timestamp;temperature;humidity
15241;DHT22;7723;52.170;9.978;2023-04-01T00:00:36;9.80;99.90
15241;DHT22;7723;52.170;9.978;2023-04-01T00:03:03;9.80;99.90
15241;DHT22;7723;52.170;9.978;2023-04-01T00:05:30;9.90;99.90
15241;DHT22;7723;52.170;9.978;2023-04-01T00:07:59;9.90;99.90
15241;DHT22;7723;52.170;9.978;2023-04-01T00:10:26;9.90;99.90
15241;DHT22;7723;52.170;9.978;2023-04-01T00:12:53;10.60;99.90
15241;DHT22;7723;52.170;9.978;2023-04-01T00:15:20;10.00;99.90
15241;DHT22;7723;52.170;9.978;2023-04-01T00:17:47;9.90;99.90
15241;DHT22;7723;52.170;9.978;2023-04-01T00:20:15;10.00;99.90
15241;DHT22;7723;52.170;9.978;2023-04-01T00:22:43;9.90;99.90
15241;DHT22;7723;52.170;9.978;2023-04-01T00:25:12;9.90;99.90
15241;DHT22;7723;52.170;9.978;2023-04-01T00:27:39;9.90;99.90
15241;DHT22;7723;52.170;9.978;2023-04-01T00:30:07;9.90;99.90
15241;DHT22;7723;52.170;9.978;2023-04-01T00:32:34;9.90;99.90
15241;DHT22;7723;52.170;9.978;2023-04-01T00:35:02;10.00;99.90
15241;DHT22;7723;52.170;9.978;2023-04-01T00:37:29;10.00;99.90
15241;DHT22;7723;52.170;9.978;2023-04-01T00:39:57;10.00;99.90
15241;DHT22;7723;52.170;9.978;2023-04-01T00:42:26;10.00;99.90
15241;DHT22;7723;52.170;9.978;2023-04-01T00:44:55;10.00;99.90
15241;DHT22;7723;52.170;9.978;2023-04-01T00:47:22;10.00;99.90
15241;DHT22;7723;52.170;9.978;2023-04-01T00:49:51;10.00;99.90
15241;DHT22;7723;52.170;9.978;2023-04-01T00:52:22;10.00;99.90
15241;DHT22;7723;52.170;9.978;2023-04-01T00:54:54;10.00;99.90
15241;DHT22;7723;52.170;9.978;2023-04-01T00:57:28;10.00;99.90
15241;DHT22;7723;52.170;9.978;2023-04-01T00:59:56;10.00;99.90
15241;DHT22;7723;52.170;9.978;2023-04-01T01:02:25;10.00;99.90
15241;DHT22;7723;52.170;9.978;2023-04-01T01:04:52;10.00;99.90
15241;DHT22;7723;52.170;9.978;2023-04-01T01:07:25;10.10;99.90
15241;DHT22;7723;52.170;9.978;2023-04-01T01:10:00;10.00;99.90
15241;DHT22;7723;52.170;9.978;2023-04-01T01:12:34;10.00;99.90
15241;DHT22;7723;52.170;9.978;2023-04-01T01:15:12;10.00;99.90
15241;DHT22;7723;52.170;9.978;2023-04-01T01:17:50;9.90;99.90
15241;DHT22;7723;52.170;9.978;2023-04-01T01:20:34;9.90;99.90
15241;DHT22;7723;52.170;9.978;2023-04-01T01:23:23;9.90;99.90
15241;DHT22;7723;52.170;9.978;2023-04-01T01:26:14;9.80;99.90
15241;DHT22;7723;52.170;9.978;2023-04-01T01:28:58;9.80;99.90
15241;DHT22;7723;52.170;9.978;2023-04-01T01:31:34;9.70;99.90
15241;DHT22;7723;52.170;9.978;2023-04-01T01:34:11;9.70;99.90
15241;DHT22;7723;52.170;9.978;2023-04-01T01:36:45;9.70;99.90
15241;DHT22;7723;52.170;9.978;2023-04-01T01:39:14;9.70;99.90
15241;DHT22;7723;52.170;9.978;2023-04-01T01:41:45;9.70;99.90
15241;DHT22;7723;52.170;9.978;2023-04-01T01:44:16;9.70;99.90
15241;DHT22;7723;52.170;9.978;2023-04-01T01:46:44;9.70;99.90
15241;DHT22;7723;52.170;9.978;2023-04-01T01:49:15;9.70;99.90
15241;DHT22;7723;52.170;9.978;2023-04-01T01:51:44;9.60;99.90
15241;DHT22;7723;52.170;9.978;2023-04-01T01:54:12;9.60;99.90
15241;DHT22;7723;52.170;9.978;2023-04-01T01:56:41;9.60;99.90
15241;DHT22;7723;52.170;9.978;2023-04-01T01:59:10;9.60;99.90
15241;DHT22;7723;52.170;9.978;2023-04-01T02:01:41;9.60;99.90
15241;DHT22;7723;52.170;9.978;2023-04-01T02:04:10;9.60;99.90
15241;DHT22;7723;52.170;9.978;2023-04-01T02:06:44;9.60;99.90
15241;DHT22;7723;52.170;9.978;2023-04-01T02:09:14;9.50;99.90
15241;DHT22;7723;52.170;9.978;2023-04-01T02:11:45;9.50;99.90
15241;DHT22;7723;52.170;9.978;2023-04-01T02:14:16;9.60;99.90
15241;DHT22;7723;52.170;9.978;2023-04-01T02:16:46;9.50;99.90
15241;DHT22;7723;52.170;9.978;2023-04-01T02:19:17;9.60;99.90
15241;DHT22;7723;52.170;9.978;2023-04-01T02:21:49;9.60;99.90
15241;DHT22;7723;52.170;9.978;2023-04-01T02:24:19;9.50;99.90
15241;DHT22;7723;52.170;9.978;2023-04-01T02:26:49;9.50;99.90
15241;DHT22;7723;52.170;9.978;2023-04-01T02:29:19;9.50;99.90
15241;DHT22;7723;52.170;9.978;2023-04-01T02:31:47;9.50;99.90
15241;DHT22;7723;52.170;9.978;2023-04-01T02:34:15;9.50;99.90
15241;DHT22;7723;52.170;9.978;2023-04-01T02:36:42;9.60;99.90
15241;DHT22;7723;52.170;9.978;2023-04-01T02:39:11;9.60;99.90
15241;DHT22;7723;52.170;9.978;2023-04-01T02:41:40;9.60;99.90
15241;DHT22;7723;52.170;9.978;2023-04-01T02:44:08;9.60;99.90
15241;DHT22;7723;52.170;9.978;2023-04-01T02:46:36;9.50;99.90
15241;DHT22;7723;52.170;9.978;2023-04-01T02:49:03;9.60;99.90
15241;DHT22;7723;52.170;9.978;2023-04-01T02:51:30;9.60;99.90
15241;DHT22;7723;52.170;9.978;2023-04-01T02:53:57;9.60;99.90
15241;DHT22;7723;52.170;9.978;2023-04-01T02:56:26;9.60;99.90
15241;DHT22;7723;52.170;9.978;2023-04-01T02:58:54;9.60;99.90
15241;DHT22;7723;52.170;9.978;2023-04-01T03:01:21;9.60;99.90
15241;DHT22;7723;52.170;9.978;2023-04-01T03:03:48;9.60;99.90
15241;DHT22;7723;52.170;9.978;2023-04-01T03:06:16;9.60;99.90
15241;DHT22;7723;52.170;9.978;2023-04-01T03:08:44;9.60;99.90
15241;DHT22;7723;52.170;9.978;2023-04-01T03:11:11;9.60;99.90
15241;DHT22;7723;52.170;9.978;2023-04-01T03:13:40;9.60;99.90
15241;DHT22;7723;52.170;9.978;2023-04-01T03:16:07;9.60;99.90
15241;DHT22;7723;52.170;9.978;2023-04-01T03:18:34;9.60;99.90
15241;DHT22;7723;52.170;9.978;2023-04-01T03:21:13;9.60;99.90
15241;DHT22;7723;52.170;9.978;2023-04-01T03:23:41;9.60;99.90
15241;DHT22;7723;52.170;9.978;2023-04-01T03:26:08;9.50;99.90
15241;DHT22;7723;52.170;9.978;2023-04-01T03:28:35;9.60;99.90
15241;DHT22;7723;52.170;9.978;2023-04-01T03:31:04;9.50;99.90
15241;DHT22;7723;52.170;9.978;2023-04-01T03:33:31;9.50;99.90
15241;DHT22;7723;52.170;9.978;2023-04-01T03:35:58;9.50;99.90
15241;DHT22;7723;52.170;9.978;2023-04-01T03:38:26;9.50;99.90
15241;DHT22;7723;52.170;9.978;2023-04-01T03:40:53;9.50;99.90
15241;DHT22;7723;52.170;9.978;2023-04-01T03:43:20;9.50;99.90
15241;DHT22;7723;52.170;9.978;2023-04-01T03:45:49;9.50;99.90
15241;DHT22;7723;52.170;9.978;2023-04-01T03:48:18;9.50;99.90
15241;DHT22;7723;52.170;9.978;2023-04-01T03:50:47;9.50;99.90
15241;DHT22;7723;52.170;9.978;2023-04-01T03:53:14;9.50;99.90
15241;DHT22;7723;52.170;9.978;2023-04-01T03:55:41;9.60;99.90
15241;DHT22;7723;52.170;9.978;2023-04-01T03:58:09;9.50;99.90
15241;DHT22;7723;52.170;9.978;2023-04-01T04:00:36;9.50;99.90
15241;DHT22;7723;52.170;9.978;2023-04-01T04:03:03;9.50;99.90
15241;DHT22;7723;52.170;9.978;2023-04-01T04:05:32;9.50;99.90
15241;DHT22;7723;52.170;9.978;2023-04-01T04:07:59;9.40;99.90
15241;DHT22;7723;52.170;9.978;2023-04-01T04:10:26;9.40;99.90
15241;DHT22;7723;52.170;9.978;2023-04-01T04:12:55;9.40;99.90
15241;DHT22;7723;52.170;9.978;2023-04-01T04:15:22;9.50;99.90
15241;DHT22;7723;52.170;9.978;2023-04-01T04:17:49;9.40;99.90
15241;DHT22;7723;52.170;9.978;2023-04-01T04:20:16;9.40;99.90
15241;DHT22;7723;52.170;9.978;2023-04-01T04:22:45;9.30;99.90
15241;DHT22;7723;52.170;9.978;2023-04-01T04:25:12;9.30;99.90
15241;DHT22;7723;52.170;9.978;2023-04-01T04:27:39;9.40;99.90
15241;DHT22;7723;52.170;9.978;2023-04-01T04:30:07;9.30;99.90
15241;DHT22;7723;52.170;9.978;2023-04-01T04:32:35;9.30;99.90
15241;DHT22;7723;52.170;9.978;2023-04-01T04:35:03;9.30;99.90
15241;DHT22;7723;52.170;9.978;2023-04-01T04:37:32;9.40;99.90
15241;DHT22;7723;52.170;9.978;2023-04-01T04:40:00;9.30;99.90
15241;DHT22;7723;52.170;9.978;2023-04-01T04:42:27;9.30;99.90
15241;DHT22;7723;52.170;9.978;2023-04-01T04:44:54;9.40;99.90
15241;DHT22;7723;52.170;9.978;2023-04-01T04:47:22;9.40;99.90
15241;DHT22;7723;52.170;9.978;2023-04-01T04:49:49;9.30;99.90
15241;DHT22;7723;52.170;9.978;2023-04-01T04:52:16;9.10;99.90
15241;DHT22;7723;52.170;9.978;2023-04-01T04:54:43;9.30;99.90
15241;DHT22;7723;52.170;9.978;2023-04-01T04:57:11;9.30;99.90
15241;DHT22;7723;52.170;9.978;2023-04-01T04:59:38;9.30;99.90
15241;DHT22;7723;52.170;9.978;2023-04-01T05:02:05;9.30;99.90
15241;DHT22;7723;52.170;9.978;2023-04-01T05:04:35;9.20;99.90
15241;DHT22;7723;52.170;9.978;2023-04-01T05:07:02;9.20;99.90
15241;DHT22;7723;52.170;9.978;2023-04-01T05:09:29;9.20;99.90
15241;DHT22;7723;52.170;9.978;2023-04-01T05:11:57;9.20;99.90
15241;DHT22;7723;52.170;9.978;2023-04-01T05:14:26;9.20;99.90
15241;DHT22;7723;52.170;9.978;2023-04-01T05:16:53;9.20;99.90
15241;DHT22;7723;52.170;9.978;2023-04-01T05:19:21;9.20;99.90
15241;DHT22;7723;52.170;9.978;2023-04-01T05:21:48;9.10;99.90
15241;DHT22;7723;52.170;9.978;2023-04-01T05:24:15;9.20;99.90
15241;DHT22;7723;52.170;9.978;2023-04-01T05:26:42;9.20;99.90
15241;DHT22;7723;52.170;9.978;2023-04-01T05:29:10;9.20;99.90
15241;DHT22;7723;52.170;9.978;2023-04-01T05:31:38;9.20;99.90
15241;DHT22;7723;52.170;9.978;2023-04-01T05:34:05;9.20;99.90
15241;DHT22;7723;52.170;9.978;2023-04-01T05:36:32;9.10;99.90
15241;DHT22;7723;52.170;9.978;2023-04-01T05:38:59;9.20;99.90
15241;DHT22;7723;52.170;9.978;2023-04-01T05:41:26;9.20;99.90
15241;DHT22;7723;52.170;9.978;2023-04-01T05:43:54;9.20;99.90
15241;DHT22;7723;52.170;9.978;2023-04-01T05:46:21;9.30;99.90
15241;DHT22;7723;52.170;9.978;2023-04-01T05:48:50;9.30;99.90
15241;DHT22;7723;52.170;9.978;2023-04-01T05:51:17;9.30;99.90
15241;DHT22;7723;52.170;9.978;2023-04-01T05:53:44;9.40;99.90
15241;DHT22;7723;52.170;9.978;2023-04-01T05:56:11;9.40;99.90
15241;DHT22;7723;52.170;9.978;2023-04-01T05:58:39;9.40;99.90
15241;DHT22;7723;52.170;9.978;2023-04-01T06:01:08;9.50;99.90
15241;DHT22;7723;52.170;9.978;2023-04-01T06:03:35;9.50;99.90
15241;DHT22;7723;52.170;9.978;2023-04-01T06:06:04;9.60;99.90
15241;DHT22;7723;52.170;9.978;2023-04-01T06:08:34;9.70;99.90
15241;DHT22;7723;52.170;9.978;2023-04-01T06:11:15;9.70;99.90
15241;DHT22;7723;52.170;9.978;2023-04-01T06:13:58;9.80;99.90
15241;DHT22;7723;52.170;9.978;2023-04-01T06:16:39;9.80;99.90
15241;DHT22;7723;52.170;9.978;2023-04-01T06:19:18;9.90;99.90
15241;DHT22;7723;52.170;9.978;2023-04-01T06:22:11;9.80;99.90
15241;DHT22;7723;52.170;9.978;2023-04-01T06:24:54;9.80;99.90
15241;DHT22;7723;52.170;9.978;2023-04-01T06:27:35;9.90;99.90
15241;DHT22;7723;52.170;9.978;2023-04-01T06:30:33;9.90;99.90
15241;DHT22;7723;52.170;9.978;2023-04-01T06:33:20;10.00;99.90
15241;DHT22;7723;52.170;9.978;2023-04-01T06:36:19;10.00;99.90
15241;DHT22;7723;52.170;9.978;2023-04-01T06:39:12;10.20;99.90
15241;DHT22;7723;52.170;9.978;2023-04-01T06:42:09;10.20;99.90
15241;DHT22;7723;52.170;9.978;2023-04-01T06:44:46;10.20;99.90
15241;DHT22;7723;52.170;9.978;2023-04-01T06:47:35;10.20;99.90
15241;DHT22;7723;52.170;9.978;2023-04-01T06:50:10;10.20;99.90
15241;DHT22;7723;52.170;9.978;2023-04-01T06:52:45;10.30;99.90
15241;DHT22;7723;52.170;9.978;2023-04-01T06:55:25;10.30;99.90
15241;DHT22;7723;52.170;9.978;2023-04-01T06:57:55;10.30;99.90
15241;DHT22;7723;52.170;9.978;2023-04-01T07:00:29;10.20;99.90
15241;DHT22;7723;52.170;9.978;2023-04-01T07:03:05;10.20;99.90
15241;DHT22;7723;52.170;9.978;2023-04-01T07:05:34;10.30;99.90
15241;DHT22;7723;52.170;9.978;2023-04-01T07:08:04;10.30;99.90
15241;DHT22;7723;52.170;9.978;2023-04-01T07:10:41;10.30;99.90
15241;DHT22;7723;52.170;9.978;2023-04-01T07:13:14;10.30;99.90
15241;DHT22;7723;52.170;9.978;2023-04-01T07:15:45;10.30;99.90
15241;DHT22;7723;52.170;9.978;2023-04-01T07:18:16;10.40;99.90
15241;DHT22;7723;52.170;9.978;2023-04-01T07:20:45;10.30;99.90
15241;DHT22;7723;52.170;9.978;2023-04-01T07:23:20;10.40;99.90
15241;DHT22;7723;52.170;9.978;2023-04-01T07:25:52;10.50;99.90
15241;DHT22;7723;52.170;9.978;2023-04-01T07:28:20;10.60;99.90
15241;DHT22;7723;52.170;9.978;2023-04-01T07:30:57;10.70;99.90
15241;DHT22;7723;52.170;9.978;2023-04-01T07:33:33;10.80;99.90
15241;DHT22;7723;52.170;9.978;2023-04-01T07:36:10;10.60;99.90
15241;DHT22;7723;52.170;9.978;2023-04-01T07:38:46;10.70;99.90
15241;DHT22;7723;52.170;9.978;2023-04-01T07:41:26;10.70;99.90
15241;DHT22;7723;52.170;9.978;2023-04-01T07:44:05;10.80;99.90
15241;DHT22;7723;52.170;9.978;2023-04-01T07:46:49;10.90;99.90
15241;DHT22;7723;52.170;9.978;2023-04-01T07:49:25;10.80;99.90
15241;DHT22;7723;52.170;9.978;2023-04-01T07:51:59;10.90;99.90
15241;DHT22;7723;52.170;9.978;2023-04-01T07:54:32;11.00;99.90
15241;DHT22;7723;52.170;9.978;2023-04-01T07:57:06;11.00;99.90
15241;DHT22;7723;52.170;9.978;2023-04-01T07:59:40;11.20;99.90
15241;DHT22;7723;52.170;9.978;2023-04-01T08:02:18;11.40;99.90
15241;DHT22;7723;52.170;9.978;2023-04-01T08:04:53;11.30;99.90
15241;DHT22;7723;52.170;9.978;2023-04-01T08:07:25;11.40;99.90
15241;DHT22;7723;52.170;9.978;2023-04-01T08:09:58;11.40;99.90
15241;DHT22;7723;52.170;9.978;2023-04-01T08:12:36;11.60;99.90
15241;DHT22;7723;52.170;9.978;2023-04-01T08:15:12;11.60;99.90
15241;DHT22;7723;52.170;9.978;2023-04-01T08:17:50;11.50;99.90
15241;DHT22;7723;52.170;9.978;2023-04-01T08:20:28;11.70;99.90
15241;DHT22;7723;52.170;9.978;2023-04-01T08:23:00;11.80;99.90
15241;DHT22;7723;52.170;9.978;2023-04-01T08:25:30;11.90;99.90
15241;DHT22;7723;52.170;9.978;2023-04-01T08:28:05;12.10;99.90
15241;DHT22;7723;52.170;9.978;2023-04-01T08:30:42;12.30;99.90
15241;DHT22;7723;52.170;9.978;2023-04-01T08:33:13;12.70;99.90
15241;DHT22;7723;52.170;9.978;2023-04-01T08:35:46;12.80;99.90
15241;DHT22;7723;52.170;9.978;2023-04-01T08:38:17;12.90;99.90
15241;DHT22;7723;52.170;9.978;2023-04-01T08:40:57;13.00;99.90
15241;DHT22;7723;52.170;9.978;2023-04-01T08:43:51;13.20;99.90
15241;DHT22;7723;52.170;9.978;2023-04-01T08:46:45;13.20;99.90
15241;DHT22;7723;52.170;9.978;2023-04-01T08:49:29;13.00;99.90
15241;DHT22;7723;52.170;9.978;2023-04-01T08:52:18;12.90;99.90
15241;DHT22;7723;52.170;9.978;2023-04-01T08:55:09;12.60;99.90
15241;DHT22;7723;52.170;9.978;2023-04-01T08:57:45;12.70;99.90
15241;DHT22;7723;52.170;9.978;2023-04-01T09:00:25;12.60;99.90
15241;DHT22;7723;52.170;9.978;2023-04-01T09:03:08;12.70;99.90
15241;DHT22;7723;52.170;9.978;2023-04-01T09:05:56;12.60;99.90
15241;DHT22;7723;52.170;9.978;2023-04-01T09:08:36;12.70;99.90
15241;DHT22;7723;52.170;9.978;2023-04-01T09:11:20;12.90;99.90
15241;DHT22;7723;52.170;9.978;2023-04-01T09:14:04;13.10;99.90
15241;DHT22;7723;52.170;9.978;2023-04-01T09:17:04;13.10;99.90
15241;DHT22;7723;52.170;9.978;2023-04-01T09:19:46;13.20;99.90
15241;DHT22;7723;52.170;9.978;2023-04-01T09:22:37;13.20;99.90
15241;DHT22;7723;52.170;9.978;2023-04-01T09:25:32;13.10;99.90
15241;DHT22;7723;52.170;9.978;2023-04-01T09:28:10;13.00;99.90
15241;DHT22;7723;52.170;9.978;2023-04-01T09:30:54;13.10;99.90
15241;DHT22;7723;52.170;9.978;2023-04-01T09:36:44;13.50;99.90
15241;DHT22;7723;52.170;9.978;2023-04-01T09:39:31;13.30;99.90
15241;DHT22;7723;52.170;9.978;2023-04-01T09:42:26;13.20;99.90
15241;DHT22;7723;52.170;9.978;2023-04-01T09:44:58;13.10;99.90
15241;DHT22;7723;52.170;9.978;2023-04-01T09:47:43;13.00;99.90
15241;DHT22;7723;52.170;9.978;2023-04-01T09:50:28;12.70;99.90
15241;DHT22;7723;52.170;9.978;2023-04-01T09:53:07;12.70;99.90
15241;DHT22;7723;52.170;9.978;2023-04-01T09:56:02;12.60;99.90
15241;DHT22;7723;52.170;9.978;2023-04-01T10:01:42;12.80;99.90
15241;DHT22;7723;52.170;9.978;2023-04-01T10:04:50;12.80;99.90
15241;DHT22;7723;52.170;9.978;2023-04-01T10:07:43;12.80;99.90
15241;DHT22;7723;52.170;9.978;2023-04-01T10:10:30;12.90;99.90
15241;DHT22;7723;52.170;9.978;2023-04-01T10:13:33;12.80;99.90
15241;DHT22;7723;52.170;9.978;2023-04-01T10:19:44;12.80;99.90
15241;DHT22;7723;52.170;9.978;2023-04-01T10:22:34;12.50;99.90
15241;DHT22;7723;52.170;9.978;2023-04-01T10:25:38;12.50;99.90
15241;DHT22;7723;52.170;9.978;2023-04-01T10:28:36;12.30;99.90
15241;DHT22;7723;52.170;9.978;2023-04-01T10:31:32;12.40;99.90
15241;DHT22;7723;52.170;9.978;2023-04-01T10:34:25;12.00;99.90
15241;DHT22;7723;52.170;9.978;2023-04-01T10:36:57;12.20;99.90
15241;DHT22;7723;52.170;9.978;2023-04-01T10:39:55;12.50;99.90
15241;DHT22;7723;52.170;9.978;2023-04-01T10:45:47;12.60;99.90
15241;DHT22;7723;52.170;9.978;2023-04-01T10:48:36;12.30;99.90
15241;DHT22;7723;52.170;9.978;2023-04-01T10:51:16;12.60;99.90
15241;DHT22;7723;52.170;9.978;2023-04-01T10:53:54;12.50;99.90
15241;DHT22;7723;52.170;9.978;2023-04-01T10:56:39;12.40;99.90
15241;DHT22;7723;52.170;9.978;2023-04-01T10:59:36;12.30;99.90
15241;DHT22;7723;52.170;9.978;2023-04-01T11:02:45;12.40;99.90
15241;DHT22;7723;52.170;9.978;2023-04-01T11:05:54;12.40;99.90
15241;DHT22;7723;52.170;9.978;2023-04-01T11:11:47;12.40;99.90
15241;DHT22;7723;52.170;9.978;2023-04-01T11:14:38;12.70;99.90
15241;DHT22;7723;52.170;9.978;2023-04-01T11:17:43;12.80;99.90
15241;DHT22;7723;52.170;9.978;2023-04-01T11:20:40;12.90;99.90
15241;DHT22;7723;52.170;9.978;2023-04-01T11:23:27;12.70;99.90
15241;DHT22;7723;52.170;9.978;2023-04-01T11:26:02;12.70;99.90
15241;DHT22;7723;52.170;9.978;2023-04-01T11:28:54;12.90;99.90
15241;DHT22;7723;52.170;9.978;2023-04-01T11:31:35;12.90;99.90
15241;DHT22;7723;52.170;9.978;2023-04-01T11:34:14;12.70;99.90
15241;DHT22;7723;52.170;9.978;2023-04-01T11:36:52;12.90;99.90
15241;DHT22;7723;52.170;9.978;2023-04-01T11:39:33;12.40;99.90
15241;DHT22;7723;52.170;9.978;2023-04-01T11:42:14;12.60;99.90
15241;DHT22;7723;52.170;9.978;2023-04-01T11:44:52;12.90;99.90
15241;DHT22;7723;52.170;9.978;2023-04-01T11:47:39;12.80;99.90
15241;DHT22;7723;52.170;9.978;2023-04-01T11:50:21;12.40;99.90
15241;DHT22;7723;52.170;9.978;2023-04-01T11:53:15;12.50;99.90
15241;DHT22;7723;52.170;9.978;2023-04-01T11:55:53;12.80;99.90
15241;DHT22;7723;52.170;9.978;2023-04-01T11:58:46;12.80;99.90
15241;DHT22;7723;52.170;9.978;2023-04-01T12:01:27;12.70;99.90
15241;DHT22;7723;52.170;9.978;2023-04-01T12:04:30;12.80;99.90
15241;DHT22;7723;52.170;9.978;2023-04-01T12:07:06;12.90;99.90
15241;DHT22;7723;52.170;9.978;2023-04-01T12:09:40;12.90;99.90
15241;DHT22;7723;52.170;9.978;2023-04-01T12:12:19;12.80;99.90
15241;DHT22;7723;52.170;9.978;2023-04-01T12:14:59;12.80;99.90
15241;DHT22;7723;52.170;9.978;2023-04-01T12:17:36;12.70;99.90
15241;DHT22;7723;52.170;9.978;2023-04-01T12:20:23;12.80;99.90
15241;DHT22;7723;52.170;9.978;2023-04-01T12:23:03;12.70;99.90
15241;DHT22;7723;52.170;9.978;2023-04-01T12:25:53;12.80;99.90
15241;DHT22;7723;52.170;9.978;2023-04-01T12:28:29;13.00;99.90
15241;DHT22;7723;52.170;9.978;2023-04-01T12:31:06;13.40;99.90
15241;DHT22;7723;52.170;9.978;2023-04-01T12:33:50;13.50;99.90
15241;DHT22;7723;52.170;9.978;2023-04-01T12:36:32;13.20;99.90
15241;DHT22;7723;52.170;9.978;2023-04-01T12:39:17;13.50;99.90
15241;DHT22;7723;52.170;9.978;2023-04-01T12:41:53;13.20;99.90
15241;DHT22;7723;52.170;9.978;2023-04-01T12:44:36;13.80;99.90
15241;DHT22;7723;52.170;9.978;2023-04-01T12:47:21;13.90;99.90
15241;DHT22;7723;52.170;9.978;2023-04-01T12:49:56;13.60;99.90
15241;DHT22;7723;52.170;9.978;2023-04-01T12:52:43;13.30;99.90
15241;DHT22;7723;52.170;9.978;2023-04-01T12:55:29;13.40;99.90
15241;DHT22;7723;52.170;9.978;2023-04-01T12:58:34;14.40;99.90
15241;DHT22;7723;52.170;9.978;2023-04-01T13:01:24;13.50;99.90
15241;DHT22;7723;52.170;9.978;2023-04-01T13:04:19;13.70;99.90
15241;DHT22;7723;52.170;9.978;2023-04-01T13:07:00;14.10;99.90
15241;DHT22;7723;52.170;9.978;2023-04-01T13:09:38;13.40;99.90
15241;DHT22;7723;52.170;9.978;2023-04-01T13:12:25;13.70;99.90
15241;DHT22;7723;52.170;9.978;2023-04-01T13:15:10;13.60;99.90
15241;DHT22;7723;52.170;9.978;2023-04-01T13:17:47;13.70;99.90
15241;DHT22;7723;52.170;9.978;2023-04-01T13:20:24;13.50;99.90
15241;DHT22;7723;52.170;9.978;2023-04-01T13:23:05;13.50;99.90
15241;DHT22;7723;52.170;9.978;2023-04-01T13:25:39;13.40;99.90
15241;DHT22;7723;52.170;9.978;2023-04-01T13:28:13;13.20;99.90
15241;DHT22;7723;52.170;9.978;2023-04-01T13:30:49;13.10;99.90
15241;DHT22;7723;52.170;9.978;2023-04-01T13:33:27;12.70;99.90
15241;DHT22;7723;52.170;9.978;2023-04-01T13:36:07;12.70;99.90
15241;DHT22;7723;52.170;9.978;2023-04-01T13:38:48;12.40;99.90
15241;DHT22;7723;52.170;9.978;2023-04-01T13:41:29;12.20;99.90
15241;DHT22;7723;52.170;9.978;2023-04-01T13:44:06;12.00;99.90
15241;DHT22;7723;52.170;9.978;2023-04-01T13:46:48;11.80;99.90
15241;DHT22;7723;52.170;9.978;2023-04-01T13:49:30;11.70;99.90
15241;DHT22;7723;52.170;9.978;2023-04-01T13:52:18;11.60;99.90
15241;DHT22;7723;52.170;9.978;2023-04-01T13:55:14;11.50;99.90
15241;DHT22;7723;52.170;9.978;2023-04-01T13:58:04;11.50;99.90
15241;DHT22;7723;52.170;9.978;2023-04-01T14:00:42;11.40;99.90
15241;DHT22;7723;52.170;9.978;2023-04-01T14:03:28;11.40;99.90
15241;DHT22;7723;52.170;9.978;2023-04-01T14:06:05;11.20;99.90
15241;DHT22;7723;52.170;9.978;2023-04-01T14:08:58;11.20;99.90
15241;DHT22;7723;52.170;9.978;2023-04-01T14:11:35;11.10;99.90
15241;DHT22;7723;52.170;9.978;2023-04-01T14:14:13;11.00;99.90
15241;DHT22;7723;52.170;9.978;2023-04-01T14:17:00;11.00;99.90
15241;DHT22;7723;52.170;9.978;2023-04-01T14:19:52;10.90;99.90
15241;DHT22;7723;52.170;9.978;2023-04-01T14:22:32;10.90;99.90
15241;DHT22;7723;52.170;9.978;2023-04-01T14:25:23;10.80;99.90
15241;DHT22;7723;52.170;9.978;2023-04-01T14:28:01;10.80;99.90
15241;DHT22;7723;52.170;9.978;2023-04-01T14:30:41;10.80;99.90
15241;DHT22;7723;52.170;9.978;2023-04-01T14:33:28;10.80;99.90
15241;DHT22;7723;52.170;9.978;2023-04-01T14:36:14;10.80;99.90
15241;DHT22;7723;52.170;9.978;2023-04-01T14:38:54;10.80;99.90
15241;DHT22;7723;52.170;9.978;2023-04-01T14:41:32;10.90;99.90
15241;DHT22;7723;52.170;9.978;2023-04-01T14:44:34;10.90;99.90
15241;DHT22;7723;52.170;9.978;2023-04-01T14:47:18;11.00;99.90
15241;DHT22;7723;52.170;9.978;2023-04-01T14:49:52;11.10;99.90
15241;DHT22;7723;52.170;9.978;2023-04-01T14:52:26;11.20;99.90
15241;DHT22;7723;52.170;9.978;2023-04-01T14:54:54;11.30;99.90
15241;DHT22;7723;52.170;9.978;2023-04-01T14:57:24;11.30;99.90
15241;DHT22;7723;52.170;9.978;2023-04-01T14:59:59;11.30;99.90
15241;DHT22;7723;52.170;9.978;2023-04-01T15:02:43;11.30;99.90
15241;DHT22;7723;52.170;9.978;2023-04-01T15:05:21;10.80;99.90
15241;DHT22;7723;52.170;9.978;2023-04-01T15:08:11;10.50;99.90
15241;DHT22;7723;52.170;9.978;2023-04-01T15:11:02;10.20;99.90
15241;DHT22;7723;52.170;9.978;2023-04-01T15:13:51;10.10;99.90
15241;DHT22;7723;52.170;9.978;2023-04-01T15:16:29;9.90;99.90
15241;DHT22;7723;52.170;9.978;2023-04-01T15:19:09;9.80;99.90
15241;DHT22;7723;52.170;9.978;2023-04-01T15:22:02;9.80;99.90
15241;DHT22;7723;52.170;9.978;2023-04-01T15:24:43;9.70;99.90
15241;DHT22;7723;52.170;9.978;2023-04-01T15:27:22;9.60;99.90
15241;DHT22;7723;52.170;9.978;2023-04-01T15:30:12;9.40;99.90
15241;DHT22;7723;52.170;9.978;2023-04-01T15:32:51;9.30;99.90
15241;DHT22;7723;52.170;9.978;2023-04-01T15:35:31;9.20;99.90
15241;DHT22;7723;52.170;9.978;2023-04-01T15:38:05;9.10;99.90
15241;DHT22;7723;52.170;9.978;2023-04-01T15:40:41;9.10;99.90
15241;DHT22;7723;52.170;9.978;2023-04-01T15:43:18;9.00;99.90
15241;DHT22;7723;52.170;9.978;2023-04-01T15:45:57;9.00;99.90
15241;DHT22;7723;52.170;9.978;2023-04-01T15:48:38;8.90;99.90
15241;DHT22;7723;52.170;9.978;2023-04-01T15:51:12;8.90;99.90
15241;DHT22;7723;52.170;9.978;2023-04-01T15:53:56;8.80;99.90
15241;DHT22;7723;52.170;9.978;2023-04-01T15:56:40;8.70;99.90
15241;DHT22;7723;52.170;9.978;2023-04-01T15:59:21;8.70;99.90
15241;DHT22;7723;52.170;9.978;2023-04-01T16:01:58;8.70;99.90
15241;DHT22;7723;52.170;9.978;2023-04-01T16:04:40;8.70;99.90
15241;DHT22;7723;52.170;9.978;2023-04-01T16:07:21;8.70;99.90
15241;DHT22;7723;52.170;9.978;2023-04-01T16:09:59;8.70;99.90
15241;DHT22;7723;52.170;9.978;2023-04-01T16:12:40;8.60;99.90
15241;DHT22;7723;52.170;9.978;2023-04-01T16:15:19;8.60;99.90
15241;DHT22;7723;52.170;9.978;2023-04-01T16:18:08;8.60;99.90
15241;DHT22;7723;52.170;9.978;2023-04-01T16:20:45;8.50;99.90
15241;DHT22;7723;52.170;9.978;2023-04-01T16:23:20;8.50;99.90
15241;DHT22;7723;52.170;9.978;2023-04-01T16:25:55;8.40;99.90
15241;DHT22;7723;52.170;9.978;2023-04-01T16:28:30;8.40;99.90
15241;DHT22;7723;52.170;9.978;2023-04-01T16:31:03;8.40;99.90
15241;DHT22;7723;52.170;9.978;2023-04-01T16:33:38;8.40;99.90
15241;DHT22;7723;52.170;9.978;2023-04-01T16:36:13;8.30;99.90
15241;DHT22;7723;52.170;9.978;2023-04-01T16:38:50;8.30;99.90
15241;DHT22;7723;52.170;9.978;2023-04-01T16:41:24;8.30;99.90
15241;DHT22;7723;52.170;9.978;2023-04-01T16:43:57;8.20;99.90
15241;DHT22;7723;52.170;9.978;2023-04-01T16:46:34;8.20;99.90
15241;DHT22;7723;52.170;9.978;2023-04-01T16:49:25;8.20;99.90
15241;DHT22;7723;52.170;9.978;2023-04-01T16:52:04;8.20;99.90
15241;DHT22;7723;52.170;9.978;2023-04-01T16:54:43;8.10;99.90
15241;DHT22;7723;52.170;9.978;2023-04-01T16:57:20;8.00;99.90
15241;DHT22;7723;52.170;9.978;2023-04-01T16:59:55;7.90;99.90
15241;DHT22;7723;52.170;9.978;2023-04-01T17:02:27;7.80;99.90
15241;DHT22;7723;52.170;9.978;2023-04-01T17:05:00;7.80;99.90
15241;DHT22;7723;52.170;9.978;2023-04-01T17:07:42;7.80;99.90
15241;DHT22;7723;52.170;9.978;2023-04-01T17:10:27;7.70;99.90